sensor_id;sensor_type;location;lat;lon;timestamp;P1;durP1;ratioP1;P2;durP2;ratioP2
81703;SDS011;71117;52.352;4.808;2023-07-13T00:02:07;17.88;;;4.15;;
81703;SDS011;71117;52.352;4.808;2023-07-13T00:04:33;18.80;;;3.35;;
81703;SDS011;71117;52.352;4.808;2023-07-13T00:06:59;19.35;;;4.13;;
81703;SDS011;71117;52.352;4.808;2023-07-13T00:09:24;15.35;;;3.35;;
81703;SDS011;71117;52.352;4.808;2023-07-13T00:11:51;20.48;;;4.60;;
81703;SDS011;71117;52.352;4.808;2023-07-13T00:14:19;13.30;;;3.42;;
81703;SDS011;71117;52.352;4.808;2023-07-13T00:16:45;19.55;;;3.90;;
81703;SDS011;71117;52.352;4.808;2023-07-13T00:19:11;20.60;;;4.05;;
81703;SDS011;71117;52.352;4.808;2023-07-13T00:21:38;20.20;;;3.72;;
81703;SDS011;71117;52.352;4.808;2023-07-13T00:24:04;20.15;;;3.50;;
81703;SDS011;71117;52.352;4.808;2023-07-13T00:26:31;17.73;;;4.28;;
81703;SDS011;71117;52.352;4.808;2023-07-13T00:28:57;21.17;;;4.78;;
81703;SDS011;71117;52.352;4.808;2023-07-13T00:31:23;19.90;;;4.30;;
81703;SDS011;71117;52.352;4.808;2023-07-13T00:33:48;16.55;;;3.80;;
81703;SDS011;71117;52.352;4.808;2023-07-13T00:36:14;14.40;;;3.83;;
81703;SDS011;71117;52.352;4.808;2023-07-13T00:38:39;10.80;;;3.42;;
81703;SDS011;71117;52.352;4.808;2023-07-13T00:41:05;16.55;;;3.47;;
81703;SDS011;71117;52.352;4.808;2023-07-13T00:43:31;17.33;;;3.53;;
81703;SDS011;71117;52.352;4.808;2023-07-13T00:48:44;14.50;;;3.55;;
81703;SDS011;71117;52.352;4.808;2023-07-13T00:51:12;12.63;;;2.70;;
81703;SDS011;71117;52.352;4.808;2023-07-13T00:53:39;10.20;;;2.58;;
81703;SDS011;71117;52.352;4.808;2023-07-13T00:56:05;10.88;;;2.53;;
81703;SDS011;71117;52.352;4.808;2023-07-13T00:58:31;14.90;;;2.42;;
81703;SDS011;71117;52.352;4.808;2023-07-13T01:00:58;12.80;;;2.25;;
81703;SDS011;71117;52.352;4.808;2023-07-13T01:03:23;10.15;;;2.15;;
81703;SDS011;71117;52.352;4.808;2023-07-13T01:05:49;6.05;;;2.00;;
81703;SDS011;71117;52.352;4.808;2023-07-13T01:08:15;5.75;;;1.40;;
81703;SDS011;71117;52.352;4.808;2023-07-13T01:10:41;8.50;;;1.90;;
81703;SDS011;71117;52.352;4.808;2023-07-13T01:13:15;6.25;;;1.65;;
81703;SDS011;71117;52.352;4.808;2023-07-13T01:15:44;4.45;;;1.38;;
81703;SDS011;71117;52.352;4.808;2023-07-13T01:18:18;9.98;;;1.70;;
81703;SDS011;71117;52.352;4.808;2023-07-13T01:21:03;7.68;;;1.83;;
81703;SDS011;71117;52.352;4.808;2023-07-13T01:25:55;9.25;;;1.70;;
81703;SDS011;71117;52.352;4.808;2023-07-13T01:28:22;5.15;;;1.38;;
81703;SDS011;71117;52.352;4.808;2023-07-13T01:30:52;5.88;;;1.30;;
81703;SDS011;71117;52.352;4.808;2023-07-13T01:33:18;10.40;;;1.90;;
81703;SDS011;71117;52.352;4.808;2023-07-13T01:35:44;6.57;;;1.67;;
81703;SDS011;71117;52.352;4.808;2023-07-13T01:38:11;7.85;;;1.50;;
81703;SDS011;71117;52.352;4.808;2023-07-13T01:40:39;6.30;;;1.65;;
81703;SDS011;71117;52.352;4.808;2023-07-13T01:43:05;7.43;;;1.70;;
81703;SDS011;71117;52.352;4.808;2023-07-13T01:45:31;8.07;;;2.03;;
81703;SDS011;71117;52.352;4.808;2023-07-13T01:47:57;8.77;;;1.48;;
81703;SDS011;71117;52.352;4.808;2023-07-13T01:50:23;11.77;;;2.30;;
81703;SDS011;71117;52.352;4.808;2023-07-13T01:52:49;9.60;;;2.25;;
81703;SDS011;71117;52.352;4.808;2023-07-13T01:55:15;6.93;;;1.70;;
81703;SDS011;71117;52.352;4.808;2023-07-13T01:57:40;4.45;;;1.45;;
81703;SDS011;71117;52.352;4.808;2023-07-13T02:00:06;8.15;;;1.75;;
81703;SDS011;71117;52.352;4.808;2023-07-13T02:02:34;7.90;;;2.33;;
81703;SDS011;71117;52.352;4.808;2023-07-13T02:05:00;5.75;;;1.58;;
81703;SDS011;71117;52.352;4.808;2023-07-13T02:07:25;12.35;;;2.00;;
81703;SDS011;71117;52.352;4.808;2023-07-13T02:09:51;10.82;;;2.10;;
81703;SDS011;71117;52.352;4.808;2023-07-13T02:12:16;6.07;;;1.90;;
81703;SDS011;71117;52.352;4.808;2023-07-13T02:14:42;5.10;;;1.95;;
81703;SDS011;71117;52.352;4.808;2023-07-13T02:17:09;4.63;;;1.35;;
81703;SDS011;71117;52.352;4.808;2023-07-13T02:19:35;6.18;;;1.55;;
81703;SDS011;71117;52.352;4.808;2023-07-13T02:22:00;6.28;;;1.50;;
81703;SDS011;71117;52.352;4.808;2023-07-13T02:24:25;5.45;;;1.40;;
81703;SDS011;71117;52.352;4.808;2023-07-13T02:26:52;9.35;;;1.60;;
81703;SDS011;71117;52.352;4.808;2023-07-13T02:29:19;8.57;;;1.80;;
81703;SDS011;71117;52.352;4.808;2023-07-13T02:31:45;7.22;;;1.75;;
81703;SDS011;71117;52.352;4.808;2023-07-13T02:34:10;5.72;;;1.48;;
81703;SDS011;71117;52.352;4.808;2023-07-13T02:36:35;4.22;;;1.40;;
81703;SDS011;71117;52.352;4.808;2023-07-13T02:39:02;7.20;;;1.45;;
81703;SDS011;71117;52.352;4.808;2023-07-13T02:41:29;6.13;;;1.60;;
81703;SDS011;71117;52.352;4.808;2023-07-13T02:43:54;5.93;;;1.50;;
81703;SDS011;71117;52.352;4.808;2023-07-13T02:46:28;9.13;;;1.60;;
81703;SDS011;71117;52.352;4.808;2023-07-13T02:48:53;5.38;;;1.23;;
81703;SDS011;71117;52.352;4.808;2023-07-13T02:51:19;3.70;;;1.27;;
81703;SDS011;71117;52.352;4.808;2023-07-13T02:53:44;4.93;;;1.35;;
81703;SDS011;71117;52.352;4.808;2023-07-13T02:56:10;5.65;;;1.60;;
81703;SDS011;71117;52.352;4.808;2023-07-13T02:58:35;5.68;;;1.40;;
81703;SDS011;71117;52.352;4.808;2023-07-13T03:01:07;7.40;;;1.60;;
81703;SDS011;71117;52.352;4.808;2023-07-13T03:03:34;6.88;;;1.88;;
81703;SDS011;71117;52.352;4.808;2023-07-13T03:06:00;6.22;;;1.92;;
81703;SDS011;71117;52.352;4.808;2023-07-13T03:08:27;6.88;;;1.92;;
81703;SDS011;71117;52.352;4.808;2023-07-13T03:11:03;9.50;;;2.00;;
81703;SDS011;71117;52.352;4.808;2023-07-13T03:13:30;8.02;;;1.70;;
81703;SDS011;71117;52.352;4.808;2023-07-13T03:15:56;3.75;;;1.20;;
81703;SDS011;71117;52.352;4.808;2023-07-13T03:18:22;6.00;;;1.20;;
81703;SDS011;71117;52.352;4.808;2023-07-13T03:20:50;5.55;;;1.80;;
81703;SDS011;71117;52.352;4.808;2023-07-13T03:23:16;8.68;;;1.70;;
81703;SDS011;71117;52.352;4.808;2023-07-13T03:25:42;5.03;;;1.23;;
81703;SDS011;71117;52.352;4.808;2023-07-13T03:28:07;8.02;;;1.80;;
81703;SDS011;71117;52.352;4.808;2023-07-13T03:30:33;5.05;;;1.50;;
81703;SDS011;71117;52.352;4.808;2023-07-13T03:32:58;5.55;;;1.80;;
81703;SDS011;71117;52.352;4.808;2023-07-13T03:35:24;8.52;;;1.70;;
81703;SDS011;71117;52.352;4.808;2023-07-13T03:37:49;4.93;;;1.70;;
81703;SDS011;71117;52.352;4.808;2023-07-13T03:40:16;3.58;;;1.13;;
81703;SDS011;71117;52.352;4.808;2023-07-13T03:42:42;6.65;;;1.67;;
81703;SDS011;71117;52.352;4.808;2023-07-13T03:45:07;5.47;;;1.25;;
81703;SDS011;71117;52.352;4.808;2023-07-13T03:47:33;5.55;;;1.60;;
81703;SDS011;71117;52.352;4.808;2023-07-13T03:49:58;9.82;;;1.67;;
81703;SDS011;71117;52.352;4.808;2023-07-13T03:52:24;6.78;;;1.70;;
81703;SDS011;71117;52.352;4.808;2023-07-13T03:54:49;4.90;;;1.80;;
81703;SDS011;71117;52.352;4.808;2023-07-13T03:57:15;7.68;;;1.52;;
81703;SDS011;71117;52.352;4.808;2023-07-13T03:59:40;4.85;;;1.27;;
81703;SDS011;71117;52.352;4.808;2023-07-13T04:02:05;5.95;;;1.60;;
81703;SDS011;71117;52.352;4.808;2023-07-13T04:04:32;5.43;;;1.90;;
81703;SDS011;71117;52.352;4.808;2023-07-13T04:06:57;6.85;;;2.03;;
81703;SDS011;71117;52.352;4.808;2023-07-13T04:09:23;6.45;;;1.85;;
81703;SDS011;71117;52.352;4.808;2023-07-13T04:11:49;4.57;;;1.60;;
81703;SDS011;71117;52.352;4.808;2023-07-13T04:14:15;6.30;;;1.67;;
81703;SDS011;71117;52.352;4.808;2023-07-13T04:16:40;8.95;;;1.88;;
81703;SDS011;71117;52.352;4.808;2023-07-13T04:19:07;8.32;;;2.20;;
81703;SDS011;71117;52.352;4.808;2023-07-13T04:21:33;4.72;;;1.75;;
81703;SDS011;71117;52.352;4.808;2023-07-13T04:23:58;5.28;;;1.67;;
81703;SDS011;71117;52.352;4.808;2023-07-13T04:26:24;7.13;;;2.33;;
81703;SDS011;71117;52.352;4.808;2023-07-13T04:28:50;5.18;;;2.00;;
81703;SDS011;71117;52.352;4.808;2023-07-13T04:31:15;8.85;;;2.35;;
81703;SDS011;71117;52.352;4.808;2023-07-13T04:33:41;7.03;;;1.83;;
81703;SDS011;71117;52.352;4.808;2023-07-13T04:36:08;10.85;;;2.35;;
81703;SDS011;71117;52.352;4.808;2023-07-13T04:38:34;9.90;;;2.35;;
81703;SDS011;71117;52.352;4.808;2023-07-13T04:41:01;5.78;;;2.13;;
81703;SDS011;71117;52.352;4.808;2023-07-13T04:43:28;7.68;;;2.00;;
81703;SDS011;71117;52.352;4.808;2023-07-13T04:45:54;10.68;;;2.05;;
81703;SDS011;71117;52.352;4.808;2023-07-13T04:48:20;7.60;;;1.88;;
81703;SDS011;71117;52.352;4.808;2023-07-13T04:50:46;5.93;;;1.90;;
81703;SDS011;71117;52.352;4.808;2023-07-13T04:53:12;7.15;;;2.22;;
81703;SDS011;71117;52.352;4.808;2023-07-13T04:55:38;8.13;;;2.20;;
81703;SDS011;71117;52.352;4.808;2023-07-13T04:58:04;10.13;;;2.20;;
81703;SDS011;71117;52.352;4.808;2023-07-13T05:00:29;5.93;;;2.25;;
81703;SDS011;71117;52.352;4.808;2023-07-13T05:02:56;6.57;;;2.25;;
81703;SDS011;71117;52.352;4.808;2023-07-13T05:05:22;7.90;;;2.03;;
81703;SDS011;71117;52.352;4.808;2023-07-13T05:07:49;9.63;;;2.55;;
81703;SDS011;71117;52.352;4.808;2023-07-13T05:10:14;9.55;;;2.70;;
81703;SDS011;71117;52.352;4.808;2023-07-13T05:12:40;6.65;;;1.92;;
81703;SDS011;71117;52.352;4.808;2023-07-13T05:15:06;11.98;;;2.22;;
81703;SDS011;71117;52.352;4.808;2023-07-13T05:17:32;11.90;;;2.60;;
81703;SDS011;71117;52.352;4.808;2023-07-13T05:19:58;9.07;;;2.60;;
81703;SDS011;71117;52.352;4.808;2023-07-13T05:22:23;12.60;;;2.47;;
81703;SDS011;71117;52.352;4.808;2023-07-13T05:24:49;8.55;;;2.53;;
81703;SDS011;71117;52.352;4.808;2023-07-13T05:27:14;9.68;;;2.72;;
81703;SDS011;71117;52.352;4.808;2023-07-13T05:29:40;10.23;;;2.53;;
81703;SDS011;71117;52.352;4.808;2023-07-13T05:32:05;7.57;;;2.08;;
81703;SDS011;71117;52.352;4.808;2023-07-13T05:34:31;8.68;;;2.30;;
81703;SDS011;71117;52.352;4.808;2023-07-13T05:36:57;10.38;;;3.20;;
81703;SDS011;71117;52.352;4.808;2023-07-13T05:39:22;6.90;;;2.15;;
81703;SDS011;71117;52.352;4.808;2023-07-13T05:41:48;8.90;;;1.63;;
81703;SDS011;71117;52.352;4.808;2023-07-13T05:44:13;7.32;;;2.40;;
81703;SDS011;71117;52.352;4.808;2023-07-13T05:46:39;7.47;;;1.83;;
81703;SDS011;71117;52.352;4.808;2023-07-13T05:49:04;9.80;;;2.20;;
81703;SDS011;71117;52.352;4.808;2023-07-13T05:51:30;10.30;;;2.90;;
81703;SDS011;71117;52.352;4.808;2023-07-13T05:53:55;7.93;;;2.72;;
81703;SDS011;71117;52.352;4.808;2023-07-13T05:56:21;6.60;;;1.88;;
81703;SDS011;71117;52.352;4.808;2023-07-13T05:58:47;8.77;;;2.70;;
81703;SDS011;71117;52.352;4.808;2023-07-13T06:01:14;5.95;;;2.40;;
81703;SDS011;71117;52.352;4.808;2023-07-13T06:03:40;6.25;;;2.58;;
81703;SDS011;71117;52.352;4.808;2023-07-13T06:06:06;7.72;;;2.00;;
81703;SDS011;71117;52.352;4.808;2023-07-13T06:08:33;9.00;;;2.35;;
81703;SDS011;71117;52.352;4.808;2023-07-13T06:11:07;6.00;;;2.13;;
81703;SDS011;71117;52.352;4.808;2023-07-13T06:13:37;6.85;;;1.95;;
81703;SDS011;71117;52.352;4.808;2023-07-13T06:16:03;8.45;;;2.17;;
81703;SDS011;71117;52.352;4.808;2023-07-13T06:18:32;7.63;;;2.20;;
81703;SDS011;71117;52.352;4.808;2023-07-13T06:20:58;5.10;;;2.13;;
81703;SDS011;71117;52.352;4.808;2023-07-13T06:23:24;6.13;;;1.92;;
81703;SDS011;71117;52.352;4.808;2023-07-13T06:25:50;6.07;;;2.72;;
81703;SDS011;71117;52.352;4.808;2023-07-13T06:28:16;7.68;;;2.03;;
81703;SDS011;71117;52.352;4.808;2023-07-13T06:30:41;6.13;;;2.22;;
81703;SDS011;71117;52.352;4.808;2023-07-13T06:33:07;7.93;;;2.30;;
81703;SDS011;71117;52.352;4.808;2023-07-13T06:35:32;4.53;;;1.85;;
81703;SDS011;71117;52.352;4.808;2023-07-13T06:37:58;9.35;;;2.65;;
81703;SDS011;71117;52.352;4.808;2023-07-13T06:40:24;6.22;;;2.08;;
81703;SDS011;71117;52.352;4.808;2023-07-13T06:42:49;9.07;;;1.88;;
81703;SDS011;71117;52.352;4.808;2023-07-13T06:45:15;7.25;;;2.03;;
81703;SDS011;71117;52.352;4.808;2023-07-13T06:47:40;6.88;;;2.20;;
81703;SDS011;71117;52.352;4.808;2023-07-13T06:50:06;6.72;;;1.95;;
81703;SDS011;71117;52.352;4.808;2023-07-13T06:52:32;6.45;;;1.90;;
81703;SDS011;71117;52.352;4.808;2023-07-13T06:54:58;6.00;;;2.28;;
81703;SDS011;71117;52.352;4.808;2023-07-13T06:57:23;5.07;;;2.30;;
81703;SDS011;71117;52.352;4.808;2023-07-13T06:59:49;7.97;;;2.25;;
81703;SDS011;71117;52.352;4.808;2023-07-13T07:02:14;9.02;;;2.58;;
81703;SDS011;71117;52.352;4.808;2023-07-13T07:04:39;6.47;;;2.47;;
81703;SDS011;71117;52.352;4.808;2023-07-13T07:07:05;4.47;;;1.52;;
81703;SDS011;71117;52.352;4.808;2023-07-13T07:09:30;6.00;;;2.15;;
81703;SDS011;71117;52.352;4.808;2023-07-13T07:11:56;9.45;;;2.22;;
81703;SDS011;71117;52.352;4.808;2023-07-13T07:14:22;4.90;;;2.33;;
81703;SDS011;71117;52.352;4.808;2023-07-13T07:16:47;8.60;;;2.17;;
81703;SDS011;71117;52.352;4.808;2023-07-13T07:19:13;4.43;;;1.90;;
81703;SDS011;71117;52.352;4.808;2023-07-13T07:21:38;5.82;;;1.88;;
81703;SDS011;71117;52.352;4.808;2023-07-13T07:24:04;4.63;;;2.08;;
81703;SDS011;71117;52.352;4.808;2023-07-13T07:26:30;8.02;;;2.03;;
81703;SDS011;71117;52.352;4.808;2023-07-13T07:28:56;6.32;;;2.30;;
81703;SDS011;71117;52.352;4.808;2023-07-13T07:31:21;4.90;;;1.88;;
81703;SDS011;71117;52.352;4.808;2023-07-13T07:33:46;5.25;;;1.70;;
81703;SDS011;71117;52.352;4.808;2023-07-13T07:36:14;3.85;;;1.88;;
81703;SDS011;71117;52.352;4.808;2023-07-13T07:38:41;7.43;;;2.55;;
81703;SDS011;71117;52.352;4.808;2023-07-13T07:41:06;4.25;;;1.50;;
81703;SDS011;71117;52.352;4.808;2023-07-13T07:43:32;6.90;;;2.13;;
81703;SDS011;71117;52.352;4.808;2023-07-13T07:45:57;5.88;;;1.73;;
81703;SDS011;71117;52.352;4.808;2023-07-13T07:48:23;9.30;;;2.35;;
81703;SDS011;71117;52.352;4.808;2023-07-13T07:50:49;3.67;;;1.80;;
81703;SDS011;71117;52.352;4.808;2023-07-13T07:53:14;6.60;;;1.67;;
81703;SDS011;71117;52.352;4.808;2023-07-13T07:55:40;5.68;;;1.70;;
81703;SDS011;71117;52.352;4.808;2023-07-13T07:58:06;10.02;;;1.90;;
81703;SDS011;71117;52.352;4.808;2023-07-13T08:00:32;9.07;;;2.88;;
81703;SDS011;71117;52.352;4.808;2023-07-13T08:02:58;3.58;;;1.88;;
81703;SDS011;71117;52.352;4.808;2023-07-13T08:05:24;6.13;;;1.80;;
81703;SDS011;71117;52.352;4.808;2023-07-13T08:07:50;5.20;;;1.58;;
81703;SDS011;71117;52.352;4.808;2023-07-13T08:10:16;5.15;;;2.20;;
81703;SDS011;71117;52.352;4.808;2023-07-13T08:12:41;5.75;;;1.60;;
81703;SDS011;71117;52.352;4.808;2023-07-13T08:15:09;9.43;;;2.25;;
81703;SDS011;71117;52.352;4.808;2023-07-13T08:17:36;7.68;;;1.85;;
81703;SDS011;71117;52.352;4.808;2023-07-13T08:20:02;5.05;;;1.50;;
81703;SDS011;71117;52.352;4.808;2023-07-13T08:22:29;6.10;;;1.52;;
81703;SDS011;71117;52.352;4.808;2023-07-13T08:24:54;5.90;;;1.85;;
81703;SDS011;71117;52.352;4.808;2023-07-13T08:27:23;7.63;;;1.80;;
81703;SDS011;71117;52.352;4.808;2023-07-13T08:29:49;4.35;;;1.40;;
81703;SDS011;71117;52.352;4.808;2023-07-13T08:32:15;22.48;;;4.53;;
81703;SDS011;71117;52.352;4.808;2023-07-13T08:34:41;21.45;;;5.65;;
81703;SDS011;71117;52.352;4.808;2023-07-13T08:37:06;20.70;;;4.80;;
81703;SDS011;71117;52.352;4.808;2023-07-13T08:39:32;11.63;;;3.50;;
81703;SDS011;71117;52.352;4.808;2023-07-13T08:42:00;12.07;;;1.88;;
81703;SDS011;71117;52.352;4.808;2023-07-13T08:44:52;3.30;;;1.75;;
81703;SDS011;71117;52.352;4.808;2023-07-13T08:47:25;8.35;;;1.85;;
81703;SDS011;71117;52.352;4.808;2023-07-13T08:49:53;2.20;;;1.60;;
81703;SDS011;71117;52.352;4.808;2023-07-13T08:52:35;7.93;;;2.10;;
81703;SDS011;71117;52.352;4.808;2023-07-13T08:55:06;4.95;;;1.75;;
81703;SDS011;71117;52.352;4.808;2023-07-13T08:57:37;4.00;;;1.70;;
81703;SDS011;71117;52.352;4.808;2023-07-13T09:00:05;7.85;;;1.80;;
81703;SDS011;71117;52.352;4.808;2023-07-13T09:05:01;4.72;;;2.00;;
81703;SDS011;71117;52.352;4.808;2023-07-13T09:10:23;5.95;;;1.70;;
81703;SDS011;71117;52.352;4.808;2023-07-13T09:15:34;7.15;;;1.85;;
81703;SDS011;71117;52.352;4.808;2023-07-13T09:18:05;4.60;;;1.73;;
81703;SDS011;71117;52.352;4.808;2023-07-13T09:23:14;6.93;;;1.73;;
81703;SDS011;71117;52.352;4.808;2023-07-13T09:25:43;4.40;;;1.55;;
81703;SDS011;71117;52.352;4.808;2023-07-13T09:28:15;6.00;;;1.90;;
81703;SDS011;71117;52.352;4.808;2023-07-13T09:33:28;6.47;;;1.83;;
81703;SDS011;71117;52.352;4.808;2023-07-13T09:35:56;5.00;;;2.25;;
81703;SDS011;71117;52.352;4.808;2023-07-13T09:38:23;4.70;;;1.60;;
81703;SDS011;71117;52.352;4.808;2023-07-13T09:44:00;4.07;;;2.00;;
81703;SDS011;71117;52.352;4.808;2023-07-13T09:46:34;7.32;;;2.05;;
81703;SDS011;71117;52.352;4.808;2023-07-13T09:49:00;4.50;;;1.67;;
81703;SDS011;71117;52.352;4.808;2023-07-13T09:51:25;4.85;;;1.90;;
81703;SDS011;71117;52.352;4.808;2023-07-13T09:53:50;5.25;;;1.60;;
81703;SDS011;71117;52.352;4.808;2023-07-13T09:56:23;5.82;;;1.80;;
81703;SDS011;71117;52.352;4.808;2023-07-13T09:58:52;4.30;;;1.45;;
81703;SDS011;71117;52.352;4.808;2023-07-13T10:01:31;5.90;;;1.73;;
81703;SDS011;71117;52.352;4.808;2023-07-13T10:04:00;3.72;;;1.50;;
81703;SDS011;71117;52.352;4.808;2023-07-13T10:06:25;4.40;;;1.40;;
81703;SDS011;71117;52.352;4.808;2023-07-13T10:08:53;4.80;;;2.10;;
81703;SDS011;71117;52.352;4.808;2023-07-13T10:11:26;4.35;;;1.80;;
81703;SDS011;71117;52.352;4.808;2023-07-13T10:13:55;4.72;;;1.90;;
81703;SDS011;71117;52.352;4.808;2023-07-13T10:16:25;4.53;;;1.58;;
81703;SDS011;71117;52.352;4.808;2023-07-13T10:18:58;3.50;;;1.60;;
81703;SDS011;71117;52.352;4.808;2023-07-13T10:21:28;4.25;;;1.77;;
81703;SDS011;71117;52.352;4.808;2023-07-13T10:27:00;5.97;;;1.92;;
81703;SDS011;71117;52.352;4.808;2023-07-13T10:29:29;4.72;;;1.75;;
81703;SDS011;71117;52.352;4.808;2023-07-13T10:32:00;5.75;;;2.53;;
81703;SDS011;71117;52.352;4.808;2023-07-13T10:34:26;3.15;;;1.55;;
81703;SDS011;71117;52.352;4.808;2023-07-13T10:36:52;4.72;;;2.13;;
81703;SDS011;71117;52.352;4.808;2023-07-13T10:39:23;4.75;;;1.90;;
81703;SDS011;71117;52.352;4.808;2023-07-13T10:41:57;5.80;;;1.75;;
81703;SDS011;71117;52.352;4.808;2023-07-13T10:44:26;5.68;;;1.70;;
81703;SDS011;71117;52.352;4.808;2023-07-13T10:46:55;4.35;;;1.77;;
81703;SDS011;71117;52.352;4.808;2023-07-13T10:49:23;6.10;;;1.58;;
81703;SDS011;71117;52.352;4.808;2023-07-13T10:51:52;4.25;;;1.60;;
81703;SDS011;71117;52.352;4.808;2023-07-13T10:54:19;6.47;;;1.92;;
81703;SDS011;71117;52.352;4.808;2023-07-13T10:59:43;4.13;;;1.60;;
81703;SDS011;71117;52.352;4.808;2023-07-13T11:02:21;3.85;;;1.50;;
81703;SDS011;71117;52.352;4.808;2023-07-13T11:04:51;5.75;;;1.33;;
81703;SDS011;71117;52.352;4.808;2023-07-13T11:09:51;3.17;;;1.45;;
81703;SDS011;71117;52.352;4.808;2023-07-13T11:22:47;4.35;;;1.73;;
81703;SDS011;71117;52.352;4.808;2023-07-13T11:27:52;3.47;;;1.73;;
81703;SDS011;71117;52.352;4.808;2023-07-13T11:30:37;5.35;;;1.80;;
81703;SDS011;71117;52.352;4.808;2023-07-13T11:36:13;4.72;;;1.65;;
81703;SDS011;71117;52.352;4.808;2023-07-13T11:38:41;2.92;;;1.55;;
81703;SDS011;71117;52.352;4.808;2023-07-13T11:41:15;4.25;;;1.73;;
81703;SDS011;71117;52.352;4.808;2023-07-13T11:43:55;5.43;;;1.55;;
81703;SDS011;71117;52.352;4.808;2023-07-13T11:46:27;7.35;;;2.13;;
81703;SDS011;71117;52.352;4.808;2023-07-13T11:48:53;5.18;;;1.90;;
81703;SDS011;71117;52.352;4.808;2023-07-13T11:53:53;3.35;;;1.63;;
81703;SDS011;71117;52.352;4.808;2023-07-13T11:56:22;5.80;;;1.67;;
81703;SDS011;71117;52.352;4.808;2023-07-13T11:58:53;5.18;;;1.85;;
81703;SDS011;71117;52.352;4.808;2023-07-13T12:01:21;4.10;;;1.45;;
81703;SDS011;71117;52.352;4.808;2023-07-13T12:03:49;3.78;;;2.10;;
81703;SDS011;71117;52.352;4.808;2023-07-13T12:06:24;5.50;;;2.05;;
81703;SDS011;71117;52.352;4.808;2023-07-13T12:08:55;4.93;;;1.80;;
81703;SDS011;71117;52.352;4.808;2023-07-13T12:11:21;6.80;;;2.00;;
81703;SDS011;71117;52.352;4.808;2023-07-13T12:13:47;5.50;;;1.95;;
81703;SDS011;71117;52.352;4.808;2023-07-13T12:16:17;5.15;;;1.65;;
81703;SDS011;71117;52.352;4.808;2023-07-13T12:18:52;5.20;;;1.90;;
81703;SDS011;71117;52.352;4.808;2023-07-13T12:21:19;5.53;;;2.15;;
81703;SDS011;71117;52.352;4.808;2023-07-13T12:23:47;6.38;;;1.80;;
81703;SDS011;71117;52.352;4.808;2023-07-13T12:26:14;5.45;;;2.20;;
81703;SDS011;71117;52.352;4.808;2023-07-13T12:28:49;12.32;;;4.13;;
81703;SDS011;71117;52.352;4.808;2023-07-13T12:33:58;5.10;;;2.10;;
81703;SDS011;71117;52.352;4.808;2023-07-13T12:36:32;3.88;;;1.90;;
81703;SDS011;71117;52.352;4.808;2023-07-13T12:39:01;6.88;;;2.05;;
81703;SDS011;71117;52.352;4.808;2023-07-13T12:41:39;5.93;;;2.05;;
81703;SDS011;71117;52.352;4.808;2023-07-13T12:44:12;5.00;;;1.83;;
81703;SDS011;71117;52.352;4.808;2023-07-13T12:46:50;7.10;;;2.75;;
81703;SDS011;71117;52.352;4.808;2023-07-13T12:49:18;4.80;;;2.03;;
81703;SDS011;71117;52.352;4.808;2023-07-13T12:51:50;2.65;;;1.92;;
81703;SDS011;71117;52.352;4.808;2023-07-13T12:54:17;5.32;;;2.00;;
81703;SDS011;71117;52.352;4.808;2023-07-13T12:56:44;6.97;;;2.95;;
81703;SDS011;71117;52.352;4.808;2023-07-13T12:59:17;5.38;;;2.45;;
81703;SDS011;71117;52.352;4.808;2023-07-13T13:01:45;5.90;;;2.60;;
81703;SDS011;71117;52.352;4.808;2023-07-13T13:04:12;4.30;;;2.05;;
81703;SDS011;71117;52.352;4.808;2023-07-13T13:06:38;5.78;;;2.38;;
81703;SDS011;71117;52.352;4.808;2023-07-13T13:09:06;7.35;;;2.40;;
81703;SDS011;71117;52.352;4.808;2023-07-13T13:11:36;5.85;;;2.30;;
81703;SDS011;71117;52.352;4.808;2023-07-13T13:14:02;4.82;;;2.38;;
81703;SDS011;71117;52.352;4.808;2023-07-13T13:16:30;6.13;;;2.97;;
81703;SDS011;71117;52.352;4.808;2023-07-13T13:18:57;4.28;;;2.20;;
81703;SDS011;71117;52.352;4.808;2023-07-13T13:21:25;7.95;;;3.35;;
81703;SDS011;71117;52.352;4.808;2023-07-13T13:23:51;6.18;;;2.28;;
81703;SDS011;71117;52.352;4.808;2023-07-13T13:26:18;7.97;;;2.47;;
81703;SDS011;71117;52.352;4.808;2023-07-13T13:28:44;6.88;;;2.40;;
81703;SDS011;71117;52.352;4.808;2023-07-13T13:31:11;8.75;;;4.28;;
81703;SDS011;71117;52.352;4.808;2023-07-13T13:33:38;8.18;;;3.70;;
81703;SDS011;71117;52.352;4.808;2023-07-13T13:36:19;7.90;;;2.90;;
81703;SDS011;71117;52.352;4.808;2023-07-13T13:38:46;5.60;;;2.35;;
81703;SDS011;71117;52.352;4.808;2023-07-13T13:41:13;5.82;;;2.33;;
81703;SDS011;71117;52.352;4.808;2023-07-13T13:43:40;7.88;;;3.70;;
81703;SDS011;71117;52.352;4.808;2023-07-13T13:46:14;5.55;;;2.63;;
81703;SDS011;71117;52.352;4.808;2023-07-13T13:48:44;4.88;;;2.83;;
81703;SDS011;71117;52.352;4.808;2023-07-13T13:51:14;9.07;;;4.90;;
81703;SDS011;71117;52.352;4.808;2023-07-13T13:53:45;5.05;;;2.45;;
81703;SDS011;71117;52.352;4.808;2023-07-13T13:56:11;5.63;;;2.17;;
81703;SDS011;71117;52.352;4.808;2023-07-13T13:58:37;5.90;;;1.83;;
81703;SDS011;71117;52.352;4.808;2023-07-13T14:01:02;4.70;;;2.25;;
81703;SDS011;71117;52.352;4.808;2023-07-13T14:03:31;4.88;;;2.53;;
81703;SDS011;71117;52.352;4.808;2023-07-13T14:05:56;4.40;;;2.08;;
81703;SDS011;71117;52.352;4.808;2023-07-13T14:08:22;7.32;;;2.30;;
81703;SDS011;71117;52.352;4.808;2023-07-13T14:10:48;4.00;;;1.83;;
81703;SDS011;71117;52.352;4.808;2023-07-13T14:13:16;5.05;;;2.15;;
81703;SDS011;71117;52.352;4.808;2023-07-13T14:15:43;4.43;;;2.00;;
81703;SDS011;71117;52.352;4.808;2023-07-13T14:18:10;3.20;;;1.70;;
81703;SDS011;71117;52.352;4.808;2023-07-13T14:20:36;6.13;;;1.67;;
81703;SDS011;71117;52.352;4.808;2023-07-13T14:23:02;3.78;;;1.80;;
81703;SDS011;71117;52.352;4.808;2023-07-13T14:25:27;5.07;;;1.83;;
81703;SDS011;71117;52.352;4.808;2023-07-13T14:27:53;5.65;;;2.22;;
81703;SDS011;71117;52.352;4.808;2023-07-13T14:30:24;2.90;;;1.98;;
81703;SDS011;71117;52.352;4.808;2023-07-13T14:32:50;3.92;;;1.75;;
81703;SDS011;71117;52.352;4.808;2023-07-13T14:35:16;3.10;;;1.88;;
81703;SDS011;71117;52.352;4.808;2023-07-13T14:37:43;5.05;;;1.83;;
81703;SDS011;71117;52.352;4.808;2023-07-13T14:40:17;6.40;;;2.47;;
81703;SDS011;71117;52.352;4.808;2023-07-13T14:42:46;3.53;;;1.90;;
81703;SDS011;71117;52.352;4.808;2023-07-13T14:45:16;5.07;;;1.77;;
81703;SDS011;71117;52.352;4.808;2023-07-13T14:47:43;4.57;;;2.05;;
81703;SDS011;71117;52.352;4.808;2023-07-13T14:50:17;4.38;;;2.08;;
81703;SDS011;71117;52.352;4.808;2023-07-13T14:52:44;4.22;;;1.83;;
81703;SDS011;71117;52.352;4.808;2023-07-13T14:55:12;3.90;;;1.90;;
81703;SDS011;71117;52.352;4.808;2023-07-13T14:57:40;5.25;;;2.15;;
81703;SDS011;71117;52.352;4.808;2023-07-13T15:00:24;4.63;;;2.13;;
81703;SDS011;71117;52.352;4.808;2023-07-13T15:02:52;6.13;;;2.08;;
81703;SDS011;71117;52.352;4.808;2023-07-13T15:05:21;5.50;;;2.35;;
81703;SDS011;71117;52.352;4.808;2023-07-13T15:07:52;5.97;;;2.15;;
81703;SDS011;71117;52.352;4.808;2023-07-13T15:10:19;5.90;;;2.20;;
81703;SDS011;71117;52.352;4.808;2023-07-13T15:12:51;4.80;;;1.92;;
81703;SDS011;71117;52.352;4.808;2023-07-13T15:15:17;6.38;;;1.90;;
81703;SDS011;71117;52.352;4.808;2023-07-13T15:17:44;4.70;;;1.70;;
81703;SDS011;71117;52.352;4.808;2023-07-13T15:20:15;4.28;;;1.60;;
81703;SDS011;71117;52.352;4.808;2023-07-13T15:22:44;4.93;;;1.55;;
81703;SDS011;71117;52.352;4.808;2023-07-13T15:25:16;3.15;;;1.70;;
81703;SDS011;71117;52.352;4.808;2023-07-13T15:27:43;3.65;;;1.95;;
81703;SDS011;71117;52.352;4.808;2023-07-13T15:30:09;3.97;;;1.60;;
81703;SDS011;71117;52.352;4.808;2023-07-13T15:32:35;4.80;;;1.75;;
81703;SDS011;71117;52.352;4.808;2023-07-13T15:35:01;4.88;;;1.77;;
81703;SDS011;71117;52.352;4.808;2023-07-13T15:37:26;4.70;;;1.60;;
81703;SDS011;71117;52.352;4.808;2023-07-13T15:39:51;6.72;;;1.73;;